Time;durP1;ratioP1;P1;durP2;ratioP2;P2;SDS_P1;SDS_P2;PMS_P1;PMS_P2;Temp;Humidity;BMP_temperature;BMP_pressure;BME280_temperature;BME280_humidity;BME280_pressure;Samples;Min_cycle;Max_cycle;Signal;HPM_P1;HPM_P2
2022/06/21 00:02:07;;;;;;;7.18;2.40;;;;;;;;;;5008014;28;20109;-87
2022/06/21 00:04:33;;;;;;;4.75;2.28;;;;;;;;;;5012475;28;20010;-87
2022/06/21 00:07:01;;;;;;;3.85;1.70;;;;;;;;;;5012397;28;20026;-87
2022/06/21 00:09:26;;;;;;;7.60;2.30;;;;;;;;;;5012467;28;20018;-87
2022/06/21 00:11:51;;;;;;;5.17;1.90;;;;;;;;;;5011884;28;20025;-87
2022/06/21 00:14:16;;;;;;;5.50;2.70;;;;;;;;;;5012220;28;20280;-88
2022/06/21 00:16:42;;;;;;;5.30;2.37;;;;;;;;;;5011902;28;20073;-86
2022/06/21 00:19:10;;;;;;;3.70;2.55;;;;;;;;;;5012288;28;20270;-87
2022/06/21 00:21:36;;;;;;;5.07;2.90;;;;;;;;;;5012032;28;20468;-87
2022/06/21 00:24:02;;;;;;;3.78;2.28;;;;;;;;;;5011015;28;20065;-87
2022/06/21 00:26:28;;;;;;;9.63;2.67;;;;;;;;;;5011708;28;20046;-87
2022/06/21 00:28:54;;;;;;;8.18;3.08;;;;;;;;;;5010863;28;20111;-88
2022/06/21 00:31:20;;;;;;;9.55;2.95;;;;;;;;;;5011644;28;20065;-88
2022/06/21 00:33:46;;;;;;;6.00;2.67;;;;;;;;;;5011932;28;20034;-87
2022/06/21 00:36:23;;;;;;;9.27;3.05;;;;;;;;;;5010509;28;20032;-87
2022/06/21 00:38:50;;;;;;;7.78;3.10;;;;;;;;;;5010528;28;20037;-87
2022/06/21 00:41:17;;;;;;;5.97;2.72;;;;;;;;;;5011907;28;20485;-87
2022/06/21 00:43:44;;;;;;;7.72;2.88;;;;;;;;;;5010760;28;20026;-87
2022/06/21 00:46:37;;;;;;;5.78;2.67;;;;;;;;;;5011498;28;20025;-87
2022/06/21 00:49:03;;;;;;;9.55;3.13;;;;;;;;;;5011383;28;20056;-87
2022/06/21 00:51:36;;;;;;;5.07;2.78;;;;;;;;;;5010545;28;20117;-87
2022/06/21 00:54:05;;;;;;;7.07;3.35;;;;;;;;;;5010677;28;20495;-88
2022/06/21 00:56:36;;;;;;;5.95;2.58;;;;;;;;;;5011801;28;20061;-87
2022/06/21 00:59:17;;;;;;;4.68;3.33;;;;;;;;;;5011717;28;20472;-87
2022/06/21 01:01:43;;;;;;;7.82;2.88;;;;;;;;;;5011421;28;20030;-87
2022/06/21 01:04:18;;;;;;;7.10;2.70;;;;;;;;;;5011625;28;20095;-88
2022/06/21 01:06:47;;;;;;;6.82;2.35;;;;;;;;;;5011791;28;20017;-87
2022/06/21 01:09:12;;;;;;;7.68;2.95;;;;;;;;;;5011736;28;20018;-87
2022/06/21 01:11:49;;;;;;;5.23;3.03;;;;;;;;;;5011430;28;20083;-87
2022/06/21 01:14:17;;;;;;;5.25;2.67;;;;;;;;;;5013424;28;20080;-87
2022/06/21 01:16:42;;;;;;;4.00;2.45;;;;;;;;;;5014406;28;20499;-87
2022/06/21 01:19:12;;;;;;;6.40;3.03;;;;;;;;;;5015394;28;20025;-87
2022/06/21 01:21:39;;;;;;;4.15;2.90;;;;;;;;;;5015326;28;20049;-87
2022/06/21 01:24:16;;;;;;;4.75;2.92;;;;;;;;;;5013915;28;20018;-87
2022/06/21 01:26:41;;;;;;;5.13;3.08;;;;;;;;;;4995515;28;20520;-87
2022/06/21 01:29:09;;;;;;;5.05;2.90;;;;;;;;;;4995448;28;20133;-87
2022/06/21 01:31:34;;;;;;;4.65;3.78;;;;;;;;;;5006644;28;20018;-87
2022/06/21 01:33:59;;;;;;;5.38;2.88;;;;;;;;;;5015062;28;20480;-87
2022/06/21 01:36:28;;;;;;;5.15;2.90;;;;;;;;;;5015223;28;20021;-87
2022/06/21 01:38:57;;;;;;;4.63;3.35;;;;;;;;;;5015014;28;20018;-87
2022/06/21 01:41:25;;;;;;;4.43;2.92;;;;;;;;;;5014794;28;20079;-87
2022/06/21 01:43:52;;;;;;;5.20;2.90;;;;;;;;;;5015028;28;20012;-87
2022/06/21 01:46:20;;;;;;;5.53;3.17;;;;;;;;;;5014625;28;20419;-87
2022/06/21 01:48:50;;;;;;;8.82;3.00;;;;;;;;;;5014625;28;20025;-86
2022/06/21 01:51:20;;;;;;;3.92;2.85;;;;;;;;;;5010135;28;20442;-87
2022/06/21 01:53:45;;;;;;;6.40;3.25;;;;;;;;;;4993820;28;20031;-87
2022/06/21 01:56:13;;;;;;;6.83;3.30;;;;;;;;;;4993972;28;20104;-87
2022/06/21 01:58:41;;;;;;;4.85;3.10;;;;;;;;;;4995012;28;20259;-87
2022/06/21 02:01:25;;;;;;;4.45;2.45;;;;;;;;;;5012143;28;20102;-87
2022/06/21 02:03:52;;;;;;;7.60;2.85;;;;;;;;;;5012854;28;20029;-87
2022/06/21 02:06:18;;;;;;;5.88;3.30;;;;;;;;;;5014049;28;20113;-87
2022/06/21 02:08:46;;;;;;;4.95;2.90;;;;;;;;;;5013093;28;20068;-87
2022/06/21 02:11:23;;;;;;;6.95;3.35;;;;;;;;;;5013114;28;20476;-87
2022/06/21 02:14:28;;;;;;;4.50;2.75;;;;;;;;;;5014384;28;20041;-87
2022/06/21 02:16:39;;;;;;;5.75;2.80;;;;;;;;;;5013835;28;20054;-87
2022/06/21 02:19:04;;;;;;;5.30;3.13;;;;;;;;;;5014321;28;20025;-87
2022/06/21 02:21:34;;;;;;;5.47;2.67;;;;;;;;;;5013887;28;20033;-87
2022/06/21 02:23:59;;;;;;;8.38;3.17;;;;;;;;;;5014163;28;20263;-87
2022/06/21 02:26:28;;;;;;;5.82;3.30;;;;;;;;;;5013377;28;20017;-87
2022/06/21 02:28:53;;;;;;;4.40;2.60;;;;;;;;;;5012305;28;20022;-87
2022/06/21 02:31:20;;;;;;;6.32;2.80;;;;;;;;;;5014130;28;20025;-87
2022/06/21 02:33:47;;;;;;;8.40;3.13;;;;;;;;;;5012200;28;20033;-87
2022/06/21 02:36:17;;;;;;;7.35;3.17;;;;;;;;;;5013892;28;20026;-87
2022/06/21 02:38:46;;;;;;;11.40;3.58;;;;;;;;;;5013715;28;20427;-87
2022/06/21 02:41:13;;;;;;;9.85;3.17;;;;;;;;;;5013801;28;20014;-87
2022/06/21 02:43:40;;;;;;;5.55;2.63;;;;;;;;;;5013278;28;20038;-87
2022/06/21 02:46:11;;;;;;;4.40;3.30;;;;;;;;;;5013879;28;20033;-87
2022/06/21 02:48:40;;;;;;;8.43;3.30;;;;;;;;;;5013759;28;20022;-87
2022/06/21 02:51:06;;;;;;;8.48;2.75;;;;;;;;;;5013440;28;20018;-87
2022/06/21 02:53:36;;;;;;;6.93;3.35;;;;;;;;;;5013490;28;20091;-87
2022/06/21 02:56:01;;;;;;;6.95;3.50;;;;;;;;;;5013046;28;20030;-87
2022/06/21 02:58:38;;;;;;;4.87;3.23;;;;;;;;;;5013644;28;20159;-87
2022/06/21 03:01:05;;;;;;;7.00;3.40;;;;;;;;;;5013254;28;20017;-87
2022/06/21 03:03:32;;;;;;;7.45;3.42;;;;;;;;;;5013451;28;20017;-87
2022/06/21 03:05:59;;;;;;;5.00;3.10;;;;;;;;;;5013548;28;20099;-87
2022/06/21 03:08:27;;;;;;;4.72;3.22;;;;;;;;;;5012939;28;20076;-87
2022/06/21 03:10:52;;;;;;;8.95;3.45;;;;;;;;;;5013298;28;20060;-87
2022/06/21 03:13:34;;;;;;;6.10;2.72;;;;;;;;;;5012933;28;20489;-87
2022/06/21 03:16:01;;;;;;;7.57;3.47;;;;;;;;;;5012148;28;20022;-87
2022/06/21 03:18:29;;;;;;;4.30;2.88;;;;;;;;;;5013298;28;20040;-87
2022/06/21 03:20:54;;;;;;;5.47;2.80;;;;;;;;;;5013059;28;20030;-86
2022/06/21 03:23:20;;;;;;;8.07;3.47;;;;;;;;;;5011707;28;20052;-87
2022/06/21 03:25:50;;;;;;;4.10;2.78;;;;;;;;;;5013180;28;20472;-87
2022/06/21 03:28:24;;;;;;;5.72;2.80;;;;;;;;;;5012360;28;20026;-87
2022/06/21 03:30:52;;;;;;;6.07;3.05;;;;;;;;;;5012950;28;20022;-87
2022/06/21 03:33:18;;;;;;;5.32;3.20;;;;;;;;;;5012629;28;20116;-87
2022/06/21 03:35:43;;;;;;;6.30;2.80;;;;;;;;;;5012641;28;20547;-87
2022/06/21 03:38:08;;;;;;;6.50;3.20;;;;;;;;;;5012417;28;20033;-88
2022/06/21 03:43:30;;;;;;;4.80;2.90;;;;;;;;;;5012465;28;20271;-88
2022/06/21 03:45:57;;;;;;;6.75;2.65;;;;;;;;;;5012417;28;20045;-87
2022/06/21 03:48:38;;;;;;;3.13;2.67;;;;;;;;;;5011367;28;20022;-87
2022/06/21 03:51:15;;;;;;;3.05;2.58;;;;;;;;;;5012818;28;20041;-87
2022/06/21 03:53:40;;;;;;;4.80;2.88;;;;;;;;;;5012207;28;20034;-87
2022/06/21 03:56:08;;;;;;;6.00;3.30;;;;;;;;;;5012549;28;20022;-87
2022/06/21 03:58:53;;;;;;;4.25;3.13;;;;;;;;;;5007785;28;20030;-87
2022/06/21 04:01:22;;;;;;;4.65;3.22;;;;;;;;;;4992856;28;20010;-87
2022/06/21 04:03:47;;;;;;;7.70;3.35;;;;;;;;;;4995863;28;20032;-87
2022/06/21 04:06:39;;;;;;;4.77;3.47;;;;;;;;;;5012305;28;20663;-87
2022/06/21 04:09:13;;;;;;;5.72;3.35;;;;;;;;;;5012150;28;20030;-87
2022/06/21 04:11:38;;;;;;;4.30;3.03;;;;;;;;;;5012164;28;20037;-87
2022/06/21 04:14:12;;;;;;;5.97;3.47;;;;;;;;;;5010814;28;20034;-87
2022/06/21 04:16:44;;;;;;;4.57;2.67;;;;;;;;;;5012131;28;20338;-87
2022/06/21 04:19:34;;;;;;;7.63;3.33;;;;;;;;;;5012202;28;20037;-88
2022/06/21 04:22:23;;;;;;;3.88;2.80;;;;;;;;;;5012092;28;20101;-87
2022/06/21 04:24:51;;;;;;;5.78;3.55;;;;;;;;;;5012153;28;20105;-87
2022/06/21 04:27:21;;;;;;;7.20;3.47;;;;;;;;;;5026970;28;20413;-87
2022/06/21 04:30:02;;;;;;;4.75;2.80;;;;;;;;;;5012223;28;20018;-87
2022/06/21 04:32:37;;;;;;;8.13;2.67;;;;;;;;;;5011941;28;20022;-87
2022/06/21 04:35:13;;;;;;;4.25;3.00;;;;;;;;;;5012182;28;20025;-87
2022/06/21 04:37:45;;;;;;;6.03;3.55;;;;;;;;;;5011692;28;20121;-87
2022/06/21 04:40:30;;;;;;;5.30;2.85;;;;;;;;;;5010530;28;20022;-87
2022/06/21 04:43:08;;;;;;;4.30;3.17;;;;;;;;;;5002073;28;20042;-87
2022/06/21 04:45:36;;;;;;;5.45;3.80;;;;;;;;;;5012168;28;20096;-87
2022/06/21 04:48:10;;;;;;;5.97;3.17;;;;;;;;;;5010672;28;20033;-87
2022/06/21 04:50:41;;;;;;;7.28;3.42;;;;;;;;;;5015839;28;20057;-88
2022/06/21 04:53:09;;;;;;;9.52;3.47;;;;;;;;;;5014532;28;20022;-87
2022/06/21 04:55:44;;;;;;;3.55;3.00;;;;;;;;;;5014009;28;20030;-93
2022/06/21 04:58:10;;;;;;;8.10;2.97;;;;;;;;;;5013331;28;20460;-88
2022/06/21 05:00:35;;;;;;;8.88;3.47;;;;;;;;;;5009745;28;20030;-88
2022/06/21 05:03:03;;;;;;;7.03;3.55;;;;;;;;;;5008682;28;20045;-89
2022/06/21 05:05:31;;;;;;;4.07;3.28;;;;;;;;;;5010601;28;20495;-87
2022/06/21 05:08:18;;;;;;;5.80;2.88;;;;;;;;;;5010733;28;20549;-88
2022/06/21 05:10:45;;;;;;;6.88;3.47;;;;;;;;;;5012837;28;20109;-88
2022/06/21 05:13:14;;;;;;;4.22;2.95;;;;;;;;;;5014825;28;20103;-87
2022/06/21 05:15:40;;;;;;;6.82;3.20;;;;;;;;;;5015199;28;20108;-88
2022/06/21 05:18:13;;;;;;;4.18;3.10;;;;;;;;;;5015557;28;20025;-88
2022/06/21 05:20:41;;;;;;;6.93;3.33;;;;;;;;;;5011109;28;20109;-87
2022/06/21 05:23:07;;;;;;;6.75;3.85;;;;;;;;;;5006406;28;20018;-87
2022/06/21 05:25:35;;;;;;;3.72;3.08;;;;;;;;;;5013225;28;20033;-87
2022/06/21 05:28:13;;;;;;;3.58;3.05;;;;;;;;;;5013800;28;20030;-87
2022/06/21 05:30:39;;;;;;;5.88;3.20;;;;;;;;;;5014558;28;20026;-88
2022/06/21 05:33:07;;;;;;;5.90;3.43;;;;;;;;;;5010276;28;20394;-87
2022/06/21 05:35:33;;;;;;;4.20;3.35;;;;;;;;;;5010502;28;20339;-87
2022/06/21 05:38:11;;;;;;;7.57;3.22;;;;;;;;;;5012062;28;20112;-87
2022/06/21 05:40:45;;;;;;;5.93;3.08;;;;;;;;;;5002811;28;20058;-87
2022/06/21 05:43:12;;;;;;;5.30;2.97;;;;;;;;;;5003544;28;20201;-87
2022/06/21 05:45:39;;;;;;;4.95;2.95;;;;;;;;;;5014632;28;20510;-87
2022/06/21 05:48:08;;;;;;;3.58;2.88;;;;;;;;;;5011936;28;20017;-88
2022/06/21 05:50:37;;;;;;;7.78;3.40;;;;;;;;;;4999889;28;20033;-89
2022/06/21 05:53:14;;;;;;;7.30;3.50;;;;;;;;;;5014314;28;20030;-88
2022/06/21 05:55:43;;;;;;;4.55;3.35;;;;;;;;;;5000623;28;20022;-88
2022/06/21 05:58:17;;;;;;;4.60;3.20;;;;;;;;;;5013015;28;20022;-86
2022/06/21 06:00:58;;;;;;;6.60;2.97;;;;;;;;;;5005206;28;20432;-87
2022/06/21 06:03:23;;;;;;;5.47;2.80;;;;;;;;;;5012345;28;20034;-87
2022/06/21 06:05:49;;;;;;;8.00;3.87;;;;;;;;;;5014084;28;20022;-87
2022/06/21 06:08:26;;;;;;;6.00;3.33;;;;;;;;;;5014569;28;20018;-87
2022/06/21 06:10:52;;;;;;;5.78;3.35;;;;;;;;;;5011285;28;20026;-87
2022/06/21 06:13:20;;;;;;;5.25;3.13;;;;;;;;;;5008263;28;20025;-86
2022/06/21 06:15:47;;;;;;;5.93;3.55;;;;;;;;;;5014092;28;20076;-86
2022/06/21 06:18:17;;;;;;;5.20;3.13;;;;;;;;;;5014141;28;20053;-86
2022/06/21 06:20:45;;;;;;;7.43;3.22;;;;;;;;;;5014725;28;20440;-84
2022/06/21 06:23:28;;;;;;;5.25;3.10;;;;;;;;;;5012341;28;20057;-87
2022/06/21 06:25:59;;;;;;;6.03;3.25;;;;;;;;;;5012926;28;20049;-87
2022/06/21 06:28:44;;;;;;;6.77;3.33;;;;;;;;;;5012918;28;20283;-86
2022/06/21 06:31:17;;;;;;;10.50;3.50;;;;;;;;;;5009044;28;20455;-86
2022/06/21 06:33:49;;;;;;;9.65;3.08;;;;;;;;;;5008227;28;20017;-86
2022/06/21 06:36:16;;;;;;;5.97;3.00;;;;;;;;;;5007562;28;20065;-87
2022/06/21 06:38:41;;;;;;;6.22;2.90;;;;;;;;;;4996049;28;20022;-91
2022/06/21 06:41:14;;;;;;;6.97;2.80;;;;;;;;;;5003877;28;20028;-87
2022/06/21 06:44:00;;;;;;;5.68;2.88;;;;;;;;;;5013113;28;20064;-87
2022/06/21 06:46:28;;;;;;;4.65;2.45;;;;;;;;;;5012825;28;20038;-88
2022/06/21 06:49:04;;;;;;;6.65;2.70;;;;;;;;;;5011960;28;20026;-87
2022/06/21 06:51:45;;;;;;;7.20;2.70;;;;;;;;;;5013045;28;20053;-88
2022/06/21 06:54:16;;;;;;;5.47;2.70;;;;;;;;;;5009568;28;20042;-88
2022/06/21 06:56:55;;;;;;;5.57;2.20;;;;;;;;;;5009861;28;20026;-87
2022/06/21 06:59:21;;;;;;;7.05;2.13;;;;;;;;;;5000869;28;20057;-88
2022/06/21 07:01:52;;;;;;;4.18;1.98;;;;;;;;;;5000190;28;20085;-88
2022/06/21 07:04:18;;;;;;;6.50;2.10;;;;;;;;;;5007101;28;20036;-88
2022/06/21 07:06:48;;;;;;;4.82;2.00;;;;;;;;;;5008694;28;20033;-88
2022/06/21 07:09:17;;;;;;;4.57;1.83;;;;;;;;;;5003294;28;20025;-87
2022/06/21 07:11:42;;;;;;;4.55;2.10;;;;;;;;;;5003652;28;20101;-91
2022/06/21 07:14:13;;;;;;;2.53;1.90;;;;;;;;;;5007517;28;20540;-87
2022/06/21 07:16:39;;;;;;;5.97;1.85;;;;;;;;;;4997748;28;20093;-87
2022/06/21 07:19:05;;;;;;;9.38;3.33;;;;;;;;;;5009326;28;21398;-86
2022/06/21 07:21:30;;;;;;;4.03;1.67;;;;;;;;;;4993893;28;20558;-87
2022/06/21 07:23:59;;;;;;;6.78;1.83;;;;;;;;;;5002113;28;20029;-87
2022/06/21 07:26:24;;;;;;;3.97;1.92;;;;;;;;;;5005663;28;20022;-88
2022/06/21 07:28:54;;;;;;;5.40;1.92;;;;;;;;;;4994594;28;20025;-86
2022/06/21 07:31:28;;;;;;;7.43;2.38;;;;;;;;;;5007420;28;20084;-88
2022/06/21 07:33:58;;;;;;;3.20;1.50;;;;;;;;;;5003913;28;20030;-86
2022/06/21 07:36:46;;;;;;;4.97;1.90;;;;;;;;;;5011326;28;20578;-86
2022/06/21 07:39:19;;;;;;;6.10;1.70;;;;;;;;;;5012375;28;20033;-87
2022/06/21 07:41:51;;;;;;;3.97;1.55;;;;;;;;;;5007303;28;20420;-86
2022/06/21 07:44:23;;;;;;;4.20;1.83;;;;;;;;;;5007611;28;20031;-86
2022/06/21 07:46:51;;;;;;;5.68;1.60;;;;;;;;;;4993845;28;20023;-86
2022/06/21 07:49:22;;;;;;;3.78;1.70;;;;;;;;;;5006715;28;20021;-86
2022/06/21 07:51:54;;;;;;;2.85;1.70;;;;;;;;;;5010444;28;20072;-86
2022/06/21 07:54:26;;;;;;;4.93;1.83;;;;;;;;;;5009380;28;20034;-86
2022/06/21 07:56:54;;;;;;;8.38;2.40;;;;;;;;;;4994466;28;20058;-86
2022/06/21 07:59:22;;;;;;;5.22;2.10;;;;;;;;;;5012404;28;20105;-85
2022/06/21 08:07:28;;;;;;;6.60;1.60;;;;;;;;;;5010260;28;20041;-85
2022/06/21 08:09:59;;;;;;;5.43;1.90;;;;;;;;;;5009931;28;20014;-85
2022/06/21 08:12:24;;;;;;;3.22;2.10;;;;;;;;;;5002446;28;20130;-86
2022/06/21 08:14:50;;;;;;;4.63;1.95;;;;;;;;;;5010396;28;20049;-86
2022/06/21 08:17:18;;;;;;;5.38;1.88;;;;;;;;;;5007776;28;20041;-86
2022/06/21 08:19:46;;;;;;;7.78;2.10;;;;;;;;;;5004765;28;20022;-86
2022/06/21 08:22:19;;;;;;;4.03;1.70;;;;;;;;;;5010651;28;20101;-86
2022/06/21 08:24:54;;;;;;;6.95;2.47;;;;;;;;;;5006771;28;20033;-86
2022/06/21 08:27:19;;;;;;;6.88;2.35;;;;;;;;;;5009437;28;20425;-86
2022/06/21 08:29:47;;;;;;;5.83;2.17;;;;;;;;;;4998569;28;20026;-86
2022/06/21 08:32:26;;;;;;;5.70;1.90;;;;;;;;;;5002787;28;20260;-87
2022/06/21 08:34:54;;;;;;;5.43;1.88;;;;;;;;;;5008234;28;20037;-86
2022/06/21 08:37:19;;;;;;;4.55;2.13;;;;;;;;;;5010010;28;20101;-86
2022/06/21 08:39:51;;;;;;;3.80;1.77;;;;;;;;;;5004381;28;20113;-87
2022/06/21 08:42:19;;;;;;;5.03;1.90;;;;;;;;;;4991991;28;20026;-86
2022/06/21 08:45:40;;;;;;;3.85;1.55;;;;;;;;;;5005857;28;20026;-86
2022/06/21 08:48:00;;;;;;;7.35;2.00;;;;;;;;;;5005637;28;20026;-86
2022/06/21 08:50:39;;;;;;;4.75;2.00;;;;;;;;;;4994189;28;20034;-86
2022/06/21 08:53:11;;;;;;;4.28;1.95;;;;;;;;;;4993998;28;20361;-86
2022/06/21 08:55:54;;;;;;;5.18;2.03;;;;;;;;;;5011371;28;20053;-86
2022/06/21 08:58:36;;;;;;;6.65;1.85;;;;;;;;;;5006516;28;20030;-84
2022/06/21 09:01:10;;;;;;;7.78;2.50;;;;;;;;;;5011333;28;20036;-86
2022/06/21 09:03:36;;;;;;;5.15;1.80;;;;;;;;;;5005919;28;20092;-87
2022/06/21 09:06:20;;;;;;;4.97;1.67;;;;;;;;;;5009916;28;20399;-86
2022/06/21 09:09:04;;;;;;;5.97;1.45;;;;;;;;;;5012912;28;20040;-86
2022/06/21 09:11:30;;;;;;;5.55;2.00;;;;;;;;;;5010114;28;20014;-86
2022/06/21 09:14:04;;;;;;;4.85;1.92;;;;;;;;;;5010994;28;20044;-86
2022/06/21 09:16:35;;;;;;;7.10;2.47;;;;;;;;;;5011513;28;20021;-86
2022/06/21 09:19:06;;;;;;;3.97;1.83;;;;;;;;;;5011333;28;20022;-86
2022/06/21 09:21:51;;;;;;;5.80;1.90;;;;;;;;;;5010962;28;20029;-86
2022/06/21 09:24:16;;;;;;;6.55;2.25;;;;;;;;;;5009813;28;20109;-86
2022/06/21 09:26:48;;;;;;;3.20;1.50;;;;;;;;;;5010986;28;20144;-87
2022/06/21 09:29:29;;;;;;;3.45;1.60;;;;;;;;;;5011228;28;20049;-87
2022/06/21 09:31:54;;;;;;;;;;;;;;;;;;5011225;28;20452;-86
2022/06/21 09:34:22;;;;;;;6.15;1.92;;;;;;;;;;5011082;28;20364;-87
2022/06/21 09:36:54;;;;;;;4.88;2.15;;;;;;;;;;5014368;28;20105;-87
2022/06/21 09:39:22;;;;;;;6.18;2.40;;;;;;;;;;5014273;28;20468;-86
2022/06/21 09:41:59;;;;;;;4.97;2.20;;;;;;;;;;5014546;28;20088;-86
2022/06/21 09:44:31;;;;;;;10.20;2.00;;;;;;;;;;5013785;28;20056;-86
2022/06/21 09:47:01;;;;;;;7.38;2.20;;;;;;;;;;5012136;28;20029;-87
2022/06/21 09:49:26;;;;;;;7.75;2.63;;;;;;;;;;5013190;28;20033;-87
2022/06/21 09:51:57;;;;;;;6.40;2.30;;;;;;;;;;5013632;28;20089;-87
2022/06/21 09:54:25;;;;;;;6.47;1.92;;;;;;;;;;5012986;28;20291;-87
2022/06/21 09:57:16;;;;;;;3.45;1.63;;;;;;;;;;5012258;28;20020;-86
2022/06/21 09:59:54;;;;;;;3.63;1.48;;;;;;;;;;5010965;28;20018;-86
2022/06/21 10:02:26;;;;;;;5.30;1.90;;;;;;;;;;5012733;28;20364;-87
2022/06/21 10:05:06;;;;;;;5.70;1.98;;;;;;;;;;5014331;28;20441;-87
2022/06/21 10:07:50;;;;;;;7.28;2.25;;;;;;;;;;5014568;28;20030;-87
2022/06/21 10:10:24;;;;;;;4.53;1.80;;;;;;;;;;5014405;28;20026;-87
2022/06/21 10:13:04;;;;;;;6.82;1.98;;;;;;;;;;5013202;28;20380;-86
2022/06/21 10:15:35;;;;;;;4.18;1.63;;;;;;;;;;5012945;28;20036;-86
2022/06/21 10:18:19;;;;;;;4.88;1.67;;;;;;;;;;5003803;28;20036;-86
2022/06/21 10:20:44;;;;;;;9.20;2.88;;;;;;;;;;5011061;28;20018;-86
2022/06/21 10:23:18;;;;;;;10.20;2.53;;;;;;;;;;5012933;28;20434;-86
2022/06/21 10:25:54;;;;;;;5.50;1.77;;;;;;;;;;5013920;28;20406;-86
2022/06/21 10:28:22;;;;;;;6.10;1.70;;;;;;;;;;5012926;28;20059;-86
2022/06/21 10:31:14;;;;;;;1.98;1.15;;;;;;;;;;5011388;28;20022;-86
2022/06/21 10:33:49;;;;;;;7.57;1.80;;;;;;;;;;5005699;28;20046;-86
2022/06/21 10:36:15;;;;;;;6.65;2.33;;;;;;;;;;5011916;28;20116;-86
2022/06/21 10:38:40;;;;;;;3.90;1.48;;;;;;;;;;5013315;28;20018;-87
2022/06/21 10:41:17;;;;;;;4.10;1.60;;;;;;;;;;5012228;28;20010;-86
2022/06/21 10:43:58;;;;;;;4.95;1.70;;;;;;;;;;5012951;28;20030;-86
2022/06/21 10:46:35;;;;;;;5.45;1.70;;;;;;;;;;5012324;28;20014;-86
2022/06/21 10:49:00;;;;;;;5.40;1.92;;;;;;;;;;5012372;28;20085;-86
2022/06/21 10:51:44;;;;;;;6.07;2.00;;;;;;;;;;5012074;28;20487;-86
2022/06/21 10:54:10;;;;;;;5.07;1.65;;;;;;;;;;5012903;28;20380;-86
2022/06/21 11:01:17;;;;;;;6.70;2.42;;;;;;;;;;5009600;28;20401;-86
2022/06/21 11:02:19;;;;;;;;;;;;;;;;;;5012745;28;20072;-87
2022/06/21 11:04:50;;;;;;;6.10;2.22;;;;;;;;;;5012595;28;19945;-87
2022/06/21 11:07:20;;;;;;;8.90;2.40;;;;;;;;;;5012124;28;20025;-87
2022/06/21 11:09:58;;;;;;;4.78;1.90;;;;;;;;;;5010451;28;20108;-87
2022/06/21 11:15:19;;;;;;;9.60;2.33;;;;;;;;;;5011055;28;20032;-87
2022/06/21 11:17:54;;;;;;;6.75;2.25;;;;;;;;;;5011327;28;20411;-87
2022/06/21 11:20:40;;;;;;;6.25;2.33;;;;;;;;;;5001165;28;20073;-86
2022/06/21 11:23:05;;;;;;;4.68;1.98;;;;;;;;;;5017226;28;20029;-87
2022/06/21 11:25:30;;;;;;;6.33;1.97;;;;;;;;;;5000525;28;20523;-86
2022/06/21 11:28:09;;;;;;;5.17;2.97;;;;;;;;;;5005722;28;20049;-89
2022/06/21 11:30:49;;;;;;;6.70;2.60;;;;;;;;;;5012244;28;20260;-87
2022/06/21 11:33:33;;;;;;;9.52;2.33;;;;;;;;;;4993955;28;20556;-88
2022/06/21 11:36:05;;;;;;;7.35;1.85;;;;;;;;;;4998140;28;20030;-88
2022/06/21 11:38:36;;;;;;;6.03;2.13;;;;;;;;;;5011615;28;20022;-87
2022/06/21 11:44:30;;;;;;;7.97;1.85;;;;;;;;;;5012293;28;20032;-87
2022/06/21 11:46:57;;;;;;;5.38;1.80;;;;;;;;;;5009213;28;20121;-87
2022/06/21 11:49:25;;;;;;;6.10;2.35;;;;;;;;;;5010463;28;20476;-87
2022/06/21 11:52:02;;;;;;;8.60;2.40;;;;;;;;;;5011408;28;20115;-87
2022/06/21 11:54:45;;;;;;;6.53;2.97;;;;;;;;;;5010555;28;20487;-86
2022/06/21 11:57:28;;;;;;;7.63;2.38;;;;;;;;;;5019983;28;20022;-87
2022/06/21 12:00:05;;;;;;;4.93;2.08;;;;;;;;;;4992803;28;20053;-87
2022/06/21 12:02:53;;;;;;;5.80;1.98;;;;;;;;;;5005250;28;20710;-87
2022/06/21 12:05:30;;;;;;;5.15;1.83;;;;;;;;;;5010766;28;20405;-87
2022/06/21 12:08:05;;;;;;;5.10;2.20;;;;;;;;;;5009647;28;20018;-87
2022/06/21 12:10:36;;;;;;;7.05;2.25;;;;;;;;;;4999625;28;20467;-86
2022/06/21 12:13:04;;;;;;;7.22;2.33;;;;;;;;;;5011065;28;20026;-86
2022/06/21 12:15:32;;;;;;;8.02;1.77;;;;;;;;;;5012134;28;20040;-86
2022/06/21 12:18:04;;;;;;;6.68;2.42;;;;;;;;;;5011025;28;20022;-86
2022/06/21 12:20:50;;;;;;;6.65;2.38;;;;;;;;;;5011795;28;20029;-86
2022/06/21 12:23:27;;;;;;;5.55;1.70;;;;;;;;;;5011357;28;20743;-86
2022/06/21 12:25:52;;;;;;;6.18;1.85;;;;;;;;;;5011775;28;20029;-86
2022/06/21 12:28:19;;;;;;;6.80;2.08;;;;;;;;;;5010877;28;20021;-86
2022/06/21 12:30:45;;;;;;;5.15;1.55;;;;;;;;;;5010666;28;20006;-87
2022/06/21 12:33:12;;;;;;;4.38;1.70;;;;;;;;;;5010221;28;20113;-86
2022/06/21 12:36:13;;;;;;;6.45;1.92;;;;;;;;;;5011139;28;20030;-86
2022/06/21 12:38:48;;;;;;;6.38;1.85;;;;;;;;;;5008394;28;20101;-86
2022/06/21 12:41:13;;;;;;;7.88;2.33;;;;;;;;;;5010101;28;20049;-86
2022/06/21 12:43:43;;;;;;;5.73;2.07;;;;;;;;;;5011261;28;20084;-86
2022/06/21 12:46:14;;;;;;;5.55;2.60;;;;;;;;;;5011061;28;20033;-86
2022/06/21 12:48:55;;;;;;;7.72;2.10;;;;;;;;;;5010203;28;20131;-86
2022/06/21 12:51:23;;;;;;;7.13;2.10;;;;;;;;;;5009124;28;20030;-86
2022/06/21 12:53:54;;;;;;;2.22;1.40;;;;;;;;;;5009252;28;20037;-86
2022/06/21 12:56:49;;;;;;;6.40;1.77;;;;;;;;;;5009925;28;20029;-86
2022/06/21 12:59:20;;;;;;;4.60;2.00;;;;;;;;;;5006062;28;20033;-86
2022/06/21 13:01:54;;;;;;;6.00;1.55;;;;;;;;;;5009070;28;20036;-87
2022/06/21 13:04:38;;;;;;;5.50;1.83;;;;;;;;;;5001890;28;20032;-86
2022/06/21 13:07:03;;;;;;;4.85;1.88;;;;;;;;;;5009728;28;20376;-86
2022/06/21 13:09:43;;;;;;;5.83;1.97;;;;;;;;;;5011672;28;20022;-86
2022/06/21 13:12:21;;;;;;;5.03;1.67;;;;;;;;;;5013023;28;20464;-86
2022/06/21 13:14:50;;;;;;;8.63;1.65;;;;;;;;;;5007101;28;20129;-86
2022/06/21 13:17:41;;;;;;;6.35;1.90;;;;;;;;;;5014859;28;20025;-85
2022/06/21 13:20:20;;;;;;;4.95;1.45;;;;;;;;;;5013553;28;20042;-86
2022/06/21 13:22:54;;;;;;;5.45;1.63;;;;;;;;;;5014461;28;20026;-86
2022/06/21 13:25:35;;;;;;;6.20;1.70;;;;;;;;;;5015159;28;20384;-86
2022/06/21 13:28:05;;;;;;;5.25;2.28;;;;;;;;;;5008205;28;20022;-86
2022/06/21 13:31:00;;;;;;;4.60;1.77;;;;;;;;;;5014632;28;20044;-86
2022/06/21 13:33:34;;;;;;;5.38;2.35;;;;;;;;;;5029490;28;20454;-86
2022/06/21 13:35:59;;;;;;;6.45;1.90;;;;;;;;;;5015018;28;20510;-86
2022/06/21 13:38:40;;;;;;;8.15;1.90;;;;;;;;;;5012630;28;20026;-86
2022/06/21 13:42:37;;;;;;;5.85;2.28;;;;;;;;;;5013813;28;20021;-86
2022/06/21 13:44:04;;;;;;;6.63;2.28;;;;;;;;;;4996807;28;20125;-86
2022/06/21 13:46:33;;;;;;;5.53;1.90;;;;;;;;;;5012651;28;20018;-86
2022/06/21 13:49:20;;;;;;;7.57;2.08;;;;;;;;;;5014656;28;20084;-86
2022/06/21 13:51:53;;;;;;;6.05;2.20;;;;;;;;;;5016745;28;20411;-86
2022/06/21 13:54:22;;;;;;;5.60;2.15;;;;;;;;;;5033868;28;20125;-85
2022/06/21 13:57:03;;;;;;;5.80;1.52;;;;;;;;;;5014324;28;20069;-86
2022/06/21 13:59:30;;;;;;;7.20;2.40;;;;;;;;;;5013655;28;20093;-86
2022/06/21 14:02:18;;;;;;;5.60;1.75;;;;;;;;;;5013812;28;20105;-86
2022/06/21 14:04:49;;;;;;;11.13;2.88;;;;;;;;;;5010087;28;20124;-86
2022/06/21 14:07:19;;;;;;;11.90;2.35;;;;;;;;;;5014441;28;20056;-85
2022/06/21 14:09:51;;;;;;;5.57;1.80;;;;;;;;;;5014513;28;20552;-87
2022/06/21 14:12:38;;;;;;;5.05;1.73;;;;;;;;;;5014410;28;20380;-86
2022/06/21 14:15:09;;;;;;;5.30;1.67;;;;;;;;;;5014087;28;20514;-86
2022/06/21 14:17:36;;;;;;;;;;;;;;;;;;5014658;28;20025;-86
2022/06/21 14:20:11;;;;;;;8.02;2.10;;;;;;;;;;5014151;28;19909;-86
2022/06/21 14:22:43;;;;;;;5.10;1.90;;;;;;;;;;5009774;28;20018;-87
2022/06/21 14:25:08;;;;;;;;;;;;;;;;;;5014352;28;20084;-86
2022/06/21 14:27:33;;;;;;;10.80;2.55;;;;;;;;;;5013917;28;20363;-86
2022/06/21 14:30:09;;;;;;;21.93;4.27;;;;;;;;;;5013042;28;20034;-86
2022/06/21 14:32:34;;;;;;;5.78;2.30;;;;;;;;;;5013594;28;20026;-86
2022/06/21 14:35:12;;;;;;;4.97;1.70;;;;;;;;;;5013394;28;20491;-86
2022/06/21 14:38:00;;;;;;;7.10;2.45;;;;;;;;;;5013602;28;20032;-86
2022/06/21 14:40:26;;;;;;;5.68;2.13;;;;;;;;;;5030860;28;20105;-86
2022/06/21 14:42:52;;;;;;;4.70;1.80;;;;;;;;;;5012859;28;20097;-86
2022/06/21 14:45:20;;;;;;;8.15;2.25;;;;;;;;;;5013677;28;20256;-86
2022/06/21 14:47:52;;;;;;;4.60;1.70;;;;;;;;;;5013809;28;20349;-85
2022/06/21 14:50:17;;;;;;;;;;;;;;;;;;5013892;28;20100;-85
2022/06/21 14:53:01;;;;;;;7.32;2.38;;;;;;;;;;5013667;28;19906;-85
2022/06/21 14:55:29;;;;;;;8.73;2.25;;;;;;;;;;5013558;28;20036;-86
2022/06/21 14:58:05;;;;;;;5.88;1.48;;;;;;;;;;5011672;28;20105;-85
2022/06/21 15:00:44;;;;;;;5.32;1.67;;;;;;;;;;5014879;28;20417;-85
2022/06/21 15:03:19;;;;;;;7.80;2.20;;;;;;;;;;5013361;28;20101;-85
2022/06/21 15:05:51;;;;;;;3.85;1.77;;;;;;;;;;5012542;28;20026;-86
2022/06/21 15:08:18;;;;;;;2.83;1.67;;;;;;;;;;5012943;28;20496;-85
2022/06/21 15:10:49;;;;;;;9.88;2.72;;;;;;;;;;5012903;28;20026;-86
2022/06/21 15:13:31;;;;;;;6.93;2.58;;;;;;;;;;5012570;28;20018;-85
2022/06/21 15:15:57;;;;;;;5.50;1.80;;;;;;;;;;5013137;28;20038;-86
2022/06/21 15:18:28;;;;;;;7.38;1.90;;;;;;;;;;4993556;28;20022;-86
2022/06/21 15:21:03;;;;;;;5.70;1.90;;;;;;;;;;4993653;28;20026;-86
2022/06/21 15:23:33;;;;;;;4.10;1.80;;;;;;;;;;5008466;28;20028;-85
2022/06/21 15:25:58;;;;;;;8.30;2.17;;;;;;;;;;5013570;28;20022;-85
2022/06/21 15:28:29;;;;;;;9.23;1.67;;;;;;;;;;5012433;28;20376;-85
2022/06/21 15:30:57;;;;;;;5.50;1.77;;;;;;;;;;5013593;28;20252;-85